createdAt,value
2018-04-01T00:01:06.645Z,94143.91
2018-04-01T00:03:37.372Z,94157.69
2018-04-01T00:06:10.761Z,94152.56
2018-04-01T00:08:40.534Z,94157.00
2018-04-01T00:11:11.246Z,94161.86
2018-04-01T00:13:40.310Z,94152.72
2018-04-01T00:16:16.549Z,94155.92
2018-04-01T00:18:46.364Z,94154.40
2018-04-01T00:21:25.115Z,94157.55
2018-04-01T00:23:56.331Z,94159.75
2018-04-01T00:26:26.908Z,94158.13
2018-04-01T00:28:57.240Z,94162.19
2018-04-01T00:31:27.289Z,94166.12
2018-04-01T00:33:57.828Z,94162.60
2018-04-01T00:36:31.589Z,94161.83
2018-04-01T00:39:01.757Z,94164.39
2018-04-01T00:41:32.291Z,94160.00
2018-04-01T00:44:02.279Z,94166.33
2018-04-01T00:46:32.973Z,94171.48
2018-04-01T00:49:03.278Z,94173.19
2018-04-01T00:51:34.139Z,94175.88
2018-04-01T00:54:03.428Z,94168.95
2018-04-01T00:56:35.640Z,94182.76
2018-04-01T00:59:06.185Z,94171.48
2018-04-01T01:01:40.700Z,94180.27
2018-04-01T01:04:10.631Z,94185.06
2018-04-01T01:06:40.629Z,94182.79
2018-04-01T01:09:10.200Z,94180.68
2018-04-01T01:11:47.025Z,94181.84
2018-04-01T01:14:22.527Z,94188.52
2018-04-01T01:16:52.944Z,94191.39
2018-04-01T01:19:23.726Z,94193.28
2018-04-01T01:21:54.265Z,94200.27
2018-04-01T01:24:22.249Z,94198.48
2018-04-01T01:26:57.516Z,94201.19
2018-04-01T01:29:26.976Z,94202.92
2018-04-01T01:31:57.273Z,94202.73
2018-04-01T01:34:31.485Z,94199.97
2018-04-01T01:37:00.163Z,94209.13
2018-04-01T01:39:56.869Z,94214.84
2018-04-01T01:42:27.482Z,94227.88
2018-04-01T01:44:59.184Z,94225.66
2018-04-01T01:47:29.774Z,94239.59
2018-04-01T01:50:00.425Z,94235.81
2018-04-01T01:52:31.341Z,94232.89
2018-04-01T01:55:03.785Z,94236.09
2018-04-01T01:57:32.651Z,94234.02
2018-04-01T02:00:01.638Z,94251.45
2018-04-01T02:02:32.172Z,94250.84
2018-04-01T02:05:11.143Z,94261.83
2018-04-01T02:07:43.841Z,94257.91
2018-04-01T02:10:15.278Z,94269.92
2018-04-01T02:12:47.138Z,94266.70
2018-04-01T02:15:19.502Z,94267.36
2018-04-01T02:17:50.158Z,94266.34
2018-04-01T02:20:20.463Z,94275.91
2018-04-01T02:22:58.571Z,94276.48
2018-04-01T02:25:29.389Z,94279.78
2018-04-01T02:27:59.478Z,94292.95
2018-04-01T02:30:29.490Z,94281.25
2018-04-01T02:33:03.859Z,94293.36
2018-04-01T02:35:33.977Z,94282.25
2018-04-01T02:38:08.121Z,94283.17
2018-04-01T02:40:39.160Z,94283.63
2018-04-01T02:43:21.014Z,94274.48
2018-04-01T02:45:52.317Z,94280.55
2018-04-01T02:48:22.150Z,94278.28
2018-04-01T02:50:58.235Z,94282.65
2018-04-01T02:53:29.711Z,94291.61
2018-04-01T02:56:04.225Z,94285.67
2018-04-01T02:58:34.646Z,94293.46
2018-04-01T03:01:13.525Z,94287.16
2018-04-01T03:03:45.122Z,94289.50
2018-04-01T03:06:23.638Z,94291.55
2018-04-01T03:08:54.259Z,94292.19
2018-04-01T03:11:25.188Z,94292.50
2018-04-01T03:13:54.649Z,94285.59
2018-04-01T03:16:23.521Z,94291.03
2018-04-01T03:18:53.576Z,94292.48
2018-04-01T03:21:28.126Z,94293.41
2018-04-01T03:23:57.697Z,94290.16
2018-04-01T03:26:29.125Z,94291.34
2018-04-01T03:28:59.244Z,94294.30
2018-04-01T03:31:28.760Z,94288.32
2018-04-01T03:33:57.457Z,94291.26
2018-04-01T03:36:28.182Z,94312.33
2018-04-01T03:38:57.973Z,94319.52
2018-04-01T03:41:28.084Z,94315.75
2018-04-01T03:43:56.317Z,94321.31
2018-04-01T03:46:35.520Z,94321.53
2018-04-01T03:49:05.968Z,94310.66
2018-04-01T03:51:35.579Z,94311.16
2018-04-01T03:54:06.165Z,94316.51
2018-04-01T03:56:34.138Z,94323.13
2018-04-01T03:59:04.867Z,94324.61
2018-04-01T04:01:34.497Z,94330.13
2018-04-01T04:04:04.327Z,94329.83
2018-04-01T04:06:41.599Z,94325.84
2018-04-01T04:09:12.008Z,94328.25
2018-04-01T04:11:43.479Z,94335.02
2018-04-01T04:14:14.792Z,94337.00
2018-04-01T04:16:45.100Z,94334.58
2018-04-01T04:19:30.903Z,94341.52
2018-04-01T04:22:01.173Z,94340.70
2018-04-01T04:24:32.870Z,94333.76
2018-04-01T04:27:04.450Z,94344.83
2018-04-01T04:29:35.393Z,94350.16
2018-04-01T04:32:09.888Z,94353.12
2018-04-01T04:34:40.341Z,94354.13
2018-04-01T04:37:10.698Z,94360.72
2018-04-01T04:39:44.457Z,94367.52
2018-04-01T04:42:14.677Z,94362.05
2018-04-01T04:44:45.090Z,94366.23
2018-04-01T04:47:15.708Z,94369.08
2018-04-01T04:50:00.831Z,94373.00
2018-04-01T04:52:32.466Z,94374.54
2018-04-01T04:55:02.942Z,94377.30
2018-04-01T04:57:34.458Z,94385.08
2018-04-01T05:00:05.856Z,94388.09
2018-04-01T05:02:37.065Z,94386.38
2018-04-01T05:05:07.406Z,94394.48
2018-04-01T05:07:42.088Z,94390.35
2018-04-01T05:10:12.081Z,94397.83
2018-04-01T05:12:42.189Z,94398.47
2018-04-01T05:15:12.515Z,94402.06
2018-04-01T05:17:52.549Z,94403.91
2018-04-01T05:20:22.400Z,94413.31
2018-04-01T05:22:54.994Z,94411.03
2018-04-01T05:25:25.206Z,94418.64
2018-04-01T05:27:57.902Z,94427.06
2018-04-01T05:30:28.573Z,94430.96
2018-04-01T05:33:00.803Z,94423.01
2018-04-01T05:35:32.774Z,94436.23
2018-04-01T05:38:03.326Z,94437.97
2018-04-01T05:40:32.525Z,94440.70
2018-04-01T05:43:07.038Z,94443.14
2018-04-01T05:45:37.367Z,94451.66
2018-04-01T05:48:17.035Z,94458.97
2018-04-01T05:50:46.372Z,94458.25
2018-04-01T05:53:21.955Z,94459.52
2018-04-01T05:55:52.978Z,94458.84
2018-04-01T05:58:23.370Z,94465.40
2018-04-01T06:00:55.920Z,94472.41
2018-04-01T06:03:30.061Z,94472.67
2018-04-01T06:06:02.228Z,94474.03
2018-04-01T06:08:32.586Z,94477.16
2018-04-01T06:11:03.329Z,94488.94
2018-04-01T06:13:33.354Z,94486.36
2018-04-01T06:16:05.134Z,94487.02
2018-04-01T06:18:35.522Z,94493.53
2018-04-01T06:21:06.881Z,94494.56
2018-04-01T06:23:37.796Z,94499.20
2018-04-01T06:26:07.117Z,94507.44
2018-04-01T06:28:37.275Z,94506.31
2018-04-01T06:31:07.620Z,94507.71
2018-04-01T06:33:37.883Z,94506.24
2018-04-01T06:36:10.776Z,94514.63
2018-04-01T06:38:41.883Z,94519.73
2018-04-01T06:41:12.164Z,94526.32
2018-04-01T06:43:42.362Z,94526.75
2018-04-01T06:46:14.685Z,94535.27
2018-04-01T06:48:45.486Z,94530.94
2018-04-01T06:51:22.451Z,94534.69
2018-04-01T06:53:54.424Z,94538.53
2018-04-01T06:56:28.578Z,94541.24
2018-04-01T06:58:56.629Z,94533.55
2018-04-01T07:01:24.573Z,94537.90
2018-04-01T07:03:52.734Z,94544.94
2018-04-01T07:06:20.745Z,94543.13
2018-04-01T07:08:53.126Z,94542.93
2018-04-01T07:11:21.109Z,94553.98
2018-04-01T07:13:49.550Z,94544.88
2018-04-01T07:16:19.991Z,94552.31
2018-04-01T07:18:48.937Z,94552.78
2018-04-01T07:21:17.068Z,94550.48
2018-04-01T07:23:46.187Z,94557.02
2018-04-01T07:26:21.744Z,94558.91
2018-04-01T07:28:51.846Z,94562.82
2018-04-01T07:31:22.951Z,94560.38
2018-04-01T07:33:53.417Z,94570.03
2018-04-01T07:36:26.967Z,94568.20
2018-04-01T07:39:00.289Z,94567.47
2018-04-01T07:41:34.899Z,94587.55
2018-04-01T07:44:17.987Z,94575.94
2018-04-01T07:46:54.653Z,94568.40
2018-04-01T07:49:30.865Z,94584.59
2018-04-01T07:52:07.865Z,94577.92
2018-04-01T07:54:45.127Z,94592.42
2018-04-01T07:57:24.465Z,94588.82
2018-04-01T07:59:55.201Z,94592.57
2018-04-01T08:02:30.340Z,94606.33
2018-04-01T08:05:08.549Z,94615.20
2018-04-01T08:07:39.436Z,94612.24
2018-04-01T08:10:09.590Z,94623.26
2018-04-01T08:12:40.937Z,94620.31
2018-04-01T08:15:10.955Z,94632.78
2018-04-01T08:17:53.035Z,94644.81
2018-04-01T08:20:23.325Z,94640.92
2018-04-01T08:22:54.378Z,94645.67
2018-04-01T08:25:24.139Z,94650.47
2018-04-01T08:28:05.328Z,94662.14
2018-04-01T08:30:43.053Z,94647.64
2018-04-01T08:33:14.265Z,94672.41
2018-04-01T08:35:51.410Z,94673.72
2018-04-01T08:38:23.794Z,94666.81
2018-04-01T08:40:55.530Z,94668.49
2018-04-01T08:43:26.035Z,94679.42
2018-04-01T08:46:05.836Z,94666.61
2018-04-01T08:48:51.699Z,94689.73
2018-04-01T08:51:21.376Z,94678.97
2018-04-01T08:53:53.166Z,94704.22
2018-04-01T08:56:22.250Z,94695.48
2018-04-01T08:58:58.681Z,94696.56
2018-04-01T09:01:29.048Z,94695.48
2018-04-01T09:04:07.454Z,94700.09
2018-04-01T09:06:36.170Z,94711.98
2018-04-01T09:09:07.507Z,94704.83
2018-04-01T09:11:37.893Z,94706.83
2018-04-01T09:14:10.898Z,94706.44
2018-04-01T09:16:42.588Z,94697.42
2018-04-01T09:19:12.095Z,94692.59
2018-04-01T09:21:43.812Z,94694.00
2018-04-01T09:24:13.973Z,94717.72
2018-04-01T09:26:57.147Z,94707.42
2018-04-01T09:29:27.911Z,94708.64
2018-04-01T09:31:58.899Z,94705.17
2018-04-01T09:34:29.476Z,94696.22
2018-04-01T09:37:00.611Z,94712.41
2018-04-01T09:39:32.502Z,94716.03
2018-04-01T09:42:08.203Z,94717.23
2018-04-01T09:44:42.215Z,94729.31
2018-04-01T09:47:13.222Z,94723.45
2018-04-01T09:49:42.905Z,94720.17
2018-04-01T09:52:13.100Z,94715.80
2018-04-01T09:54:45.817Z,94728.55
2018-04-01T09:57:18.414Z,94728.39
2018-04-01T09:59:50.697Z,94724.36
2018-04-01T10:02:21.588Z,94721.17
2018-04-01T10:05:00.755Z,94721.68
2018-04-01T10:07:36.136Z,94732.61
2018-04-01T10:10:11.186Z,94713.62
2018-04-01T10:12:43.156Z,94712.55
2018-04-01T10:15:13.159Z,94713.14
2018-04-01T10:17:53.657Z,94707.22
2018-04-01T10:20:24.566Z,94703.35
2018-04-01T10:22:57.220Z,94701.03
2018-04-01T10:25:28.004Z,94707.36
2018-04-01T10:27:58.618Z,94703.66
2018-04-01T10:30:30.411Z,94719.98
2018-04-01T10:33:02.553Z,94714.72
2018-04-01T10:35:34.829Z,94711.27
2018-04-01T10:38:08.059Z,94718.37
2018-04-01T10:40:40.493Z,94698.91
2018-04-01T10:43:10.545Z,94713.59
2018-04-01T10:45:53.999Z,94700.19
2018-04-01T10:48:27.512Z,94697.08
2018-04-01T10:50:56.013Z,94708.69
2018-04-01T10:53:25.956Z,94721.31
2018-04-01T10:55:53.885Z,94711.06
2018-04-01T10:58:25.481Z,94717.32
2018-04-01T11:00:56.163Z,94723.25
2018-04-01T11:03:26.176Z,94721.98
2018-04-01T11:05:56.642Z,94726.94
2018-04-01T11:08:39.217Z,94709.36
2018-04-01T11:11:09.111Z,94722.23
2018-04-01T11:13:39.253Z,94704.34
2018-04-01T11:16:08.818Z,94694.05
2018-04-01T11:18:40.543Z,94711.15
2018-04-01T11:21:11.074Z,94706.98
2018-04-01T11:23:50.071Z,94718.94
2018-04-01T11:26:19.874Z,94718.77
2018-04-01T11:28:51.116Z,94713.83
2018-04-01T11:31:21.290Z,94715.37
2018-04-01T11:33:52.040Z,94731.72
2018-04-01T11:36:20.614Z,94732.59
2018-04-01T11:38:51.585Z,94725.18
2018-04-01T11:41:21.736Z,94728.47
2018-04-01T11:43:53.523Z,94713.52
2018-04-01T11:46:23.078Z,94727.88
2018-04-01T11:48:53.361Z,94717.11
2018-04-01T11:51:31.384Z,94712.88
2018-04-01T11:54:01.230Z,94712.45
2018-04-01T11:56:46.946Z,94708.77
2018-04-01T11:59:18.232Z,94723.38
2018-04-01T12:01:52.333Z,94699.92
2018-04-01T12:04:21.949Z,94710.89
2018-04-01T12:06:52.245Z,94701.97
2018-04-01T12:09:22.522Z,94713.52
2018-04-01T12:11:52.269Z,94699.22
2018-04-01T12:14:22.120Z,94695.29
2018-04-01T12:16:52.160Z,94705.41
2018-04-01T12:19:22.036Z,94693.61
2018-04-01T12:21:51.530Z,94696.73
2018-04-01T12:24:23.637Z,94709.13
2018-04-01T12:26:53.120Z,94701.17
2018-04-01T12:29:24.240Z,94695.99
2018-04-01T12:31:54.458Z,94697.48
2018-04-01T12:34:24.624Z,94704.44
2018-04-01T12:36:54.386Z,94703.24
2018-04-01T12:39:25.998Z,94689.95
2018-04-01T12:41:55.630Z,94720.92
2018-04-01T12:44:24.217Z,94698.80
2018-04-01T12:46:53.841Z,94693.93
2018-04-01T12:49:24.328Z,94705.55
2018-04-01T12:51:54.794Z,94711.55
2018-04-01T12:54:25.565Z,94674.85
2018-04-01T12:56:55.020Z,94679.20
2018-04-01T12:59:22.972Z,94687.64
2018-04-01T13:01:53.560Z,94693.36
2018-04-01T13:04:23.848Z,94723.38
2018-04-01T13:06:54.231Z,94761.16
2018-04-01T13:09:23.816Z,94786.11
2018-04-01T13:11:53.802Z,94816.66
2018-04-01T13:14:22.369Z,94835.45
2018-04-01T13:16:52.754Z,94830.96
2018-04-01T13:19:25.621Z,94783.67
2018-04-01T13:21:55.835Z,94759.64
2018-04-01T13:24:26.201Z,94760.89
2018-04-01T13:26:55.406Z,94754.95
2018-04-01T13:29:25.111Z,94751.02
2018-04-01T13:31:54.980Z,94736.80
2018-04-01T13:34:27.099Z,94739.74
2018-04-01T13:36:55.701Z,94741.55
2018-04-01T13:39:25.721Z,94740.69
2018-04-01T13:41:55.078Z,94741.81
2018-04-01T13:44:25.258Z,94733.84
2018-04-01T13:46:54.799Z,94740.53
2018-04-01T13:49:27.602Z,94742.05
2018-04-01T13:51:56.924Z,94728.59
2018-04-01T13:54:26.222Z,94715.72
2018-04-01T13:56:54.525Z,94721.51
2018-04-01T13:59:25.056Z,94724.30
2018-04-01T14:01:54.077Z,94734.53
2018-04-01T14:04:27.325Z,94755.66
2018-04-01T14:06:56.007Z,94738.00
2018-04-01T14:09:27.969Z,94748.39
2018-04-01T14:11:57.649Z,94752.34
2018-04-01T14:14:35.099Z,94752.38
2018-04-01T14:17:04.926Z,94744.84
2018-04-01T14:19:34.793Z,94798.80
2018-04-01T14:22:06.627Z,94798.33
2018-04-01T14:24:36.806Z,94809.14
2018-04-01T14:27:06.744Z,94825.86
2018-04-01T14:29:37.163Z,94825.22
2018-04-01T14:32:06.098Z,94840.63
2018-04-01T14:34:37.508Z,94825.80
2018-04-01T14:37:06.883Z,94835.59
2018-04-01T14:39:37.600Z,94831.88
2018-04-01T14:42:07.997Z,94836.13
2018-04-01T14:44:35.991Z,94845.06
2018-04-01T14:47:06.127Z,94842.02
2018-04-01T14:49:35.074Z,94825.23
2018-04-01T14:52:06.071Z,94816.38
2018-04-01T14:54:37.966Z,94828.65
2018-04-01T14:57:06.465Z,94814.19
2018-04-01T14:59:35.851Z,94820.02
2018-04-01T15:02:07.698Z,94822.84
2018-04-01T15:04:39.937Z,94817.25
2018-04-01T15:07:10.497Z,94809.64
2018-04-01T15:09:49.662Z,94812.69
2018-04-01T15:12:21.021Z,94815.48
2018-04-01T15:14:52.253Z,94815.52
2018-04-01T15:17:25.223Z,94828.59
2018-04-01T15:19:56.965Z,94799.54
2018-04-01T15:22:31.029Z,94823.95
2018-04-01T15:25:00.543Z,94812.18
2018-04-01T15:27:35.516Z,94834.75
2018-04-01T15:30:06.048Z,94839.41
2018-04-01T15:32:37.462Z,94838.31
2018-04-01T15:35:13.894Z,94849.05
2018-04-01T15:37:45.096Z,94847.11
2018-04-01T15:40:15.422Z,94841.52
2018-04-01T15:42:50.709Z,94847.96
2018-04-01T15:45:24.927Z,94846.45
2018-04-01T15:47:58.286Z,94855.54
2018-04-01T15:50:29.479Z,94841.69
2018-04-01T15:53:00.999Z,94856.34
2018-04-01T15:55:38.690Z,94850.36
2018-04-01T15:58:11.898Z,94862.92
2018-04-01T16:00:41.549Z,94864.98
2018-04-01T16:03:18.327Z,94871.64
2018-04-01T16:05:54.270Z,94875.45
2018-04-01T16:08:31.336Z,94875.12
2018-04-01T16:11:06.027Z,94881.11
2018-04-01T16:13:37.334Z,94882.98
2018-04-01T16:16:14.477Z,94873.34
2018-04-01T16:18:48.593Z,94875.64
2018-04-01T16:21:25.714Z,94883.85
2018-04-01T16:23:57.645Z,94891.19
2018-04-01T16:26:43.499Z,94887.49
2018-04-01T16:29:16.658Z,94906.73
2018-04-01T16:31:54.959Z,94891.94
2018-04-01T16:34:36.043Z,94911.10
2018-04-01T16:37:06.731Z,94899.56
2018-04-01T16:39:36.752Z,94902.52
2018-04-01T16:42:11.289Z,94912.13
2018-04-01T16:44:46.487Z,94920.07
2018-04-01T16:47:17.183Z,94925.25
2018-04-01T16:49:47.312Z,94922.32
2018-04-01T16:52:17.935Z,94920.58
2018-04-01T16:54:51.702Z,94928.57
2018-04-01T16:57:22.952Z,94922.97
2018-04-01T16:59:53.945Z,94925.69
2018-04-01T17:02:25.648Z,94929.52
2018-04-01T17:04:59.722Z,94928.06
2018-04-01T17:07:32.178Z,94942.46
2018-04-01T17:10:04.997Z,94954.96
2018-04-01T17:12:37.294Z,94943.48
2018-04-01T17:15:12.217Z,94952.09
2018-04-01T17:17:42.924Z,94962.06
2018-04-01T17:20:12.476Z,94960.81
2018-04-01T17:22:44.697Z,94963.95
2018-04-01T17:25:17.096Z,94974.62
2018-04-01T17:27:52.110Z,94970.48
2018-04-01T17:33:03.154Z,94989.33
2018-04-01T17:35:34.830Z,94986.89
2018-04-01T17:38:02.781Z,94992.50
2018-04-01T17:40:33.525Z,95003.22
2018-04-01T17:43:03.005Z,95002.80
2018-04-01T17:45:33.720Z,95015.35
2018-04-01T17:48:01.734Z,95017.09
2018-04-01T17:50:29.675Z,95024.61
2018-04-01T17:53:00.198Z,95024.10
2018-04-01T17:55:30.192Z,95041.74
2018-04-01T17:58:05.380Z,95049.99
2018-04-01T18:00:40.930Z,95047.25
2018-04-01T18:03:16.629Z,95046.89
2018-04-01T18:05:50.112Z,95059.72
2018-04-01T18:08:19.715Z,95060.63
2018-04-01T18:10:51.802Z,95063.30
2018-04-01T18:13:26.446Z,95084.48
2018-04-01T18:15:58.622Z,95076.61
2018-04-01T18:18:34.262Z,95082.41
2018-04-01T18:21:08.142Z,95082.23
2018-04-01T18:23:41.029Z,95088.37
2018-04-01T18:26:12.339Z,95090.01
2018-04-01T18:28:42.430Z,95088.43
2018-04-01T18:31:15.603Z,95089.60
2018-04-01T18:33:50.339Z,95093.86
2018-04-01T18:36:27.286Z,95097.39
2018-04-01T18:38:58.284Z,95103.94
2018-04-01T18:41:32.854Z,95110.86
2018-04-01T18:44:10.501Z,95114.50
2018-04-01T18:46:47.206Z,95121.07
2018-04-01T18:49:22.114Z,95121.04
2018-04-01T18:51:55.643Z,95136.91
2018-04-01T18:54:26.310Z,95130.28
2018-04-01T18:56:58.774Z,95133.27
2018-04-01T18:59:30.002Z,95138.21
2018-04-01T19:02:01.823Z,95141.04
2018-04-01T19:04:32.516Z,95143.92
2018-04-01T19:07:06.587Z,95144.13
2018-04-01T19:09:37.229Z,95149.28
2018-04-01T19:12:07.030Z,95150.09
2018-04-01T19:14:35.033Z,95156.95
2018-04-01T19:17:04.510Z,95159.63
2018-04-01T19:19:33.927Z,95161.55
2018-04-01T19:22:02.437Z,95166.23
2018-04-01T19:24:32.657Z,95166.80
2018-04-01T19:27:07.652Z,95172.61
2018-04-01T19:29:38.748Z,95175.21
2018-04-01T19:32:10.630Z,95183.80
2018-04-01T19:34:46.384Z,95181.31
2018-04-01T19:37:21.111Z,95175.41
2018-04-01T19:40:02.514Z,95178.58
2018-04-01T19:42:35.565Z,95181.84
2018-04-01T19:45:08.567Z,95182.06
2018-04-01T19:47:42.984Z,95185.18
2018-04-01T19:50:15.267Z,95183.72
2018-04-01T19:52:48.723Z,95181.69
2018-04-01T19:55:21.020Z,95183.52
2018-04-01T19:57:54.101Z,95197.67
2018-04-01T20:00:25.702Z,95199.75
2018-04-01T20:02:58.409Z,95191.86
2018-04-01T20:05:29.747Z,95219.23
2018-04-01T20:08:10.293Z,95212.59
2018-04-01T20:10:42.534Z,95214.50
2018-04-01T20:13:19.028Z,95229.77
2018-04-01T20:16:09.197Z,95223.66
2018-04-01T20:18:41.329Z,95230.24
2018-04-01T20:21:13.822Z,95220.73
2018-04-01T20:23:48.584Z,95238.60
2018-04-01T20:26:21.203Z,95234.73
2018-04-01T20:28:53.609Z,95237.00
2018-04-01T20:31:32.053Z,95220.73
2018-04-01T20:34:04.601Z,95220.13
2018-04-01T20:36:38.502Z,95245.57
2018-04-01T20:39:12.691Z,95236.17
2018-04-01T20:41:44.165Z,95233.03
2018-04-01T20:44:18.257Z,95239.21
2018-04-01T20:46:51.632Z,95239.80
2018-04-01T20:49:22.948Z,95247.45
2018-04-01T20:51:55.248Z,95247.92
2018-04-01T20:54:30.466Z,95239.27
2018-04-01T20:57:01.288Z,95240.14
2018-04-01T20:59:32.443Z,95244.54
2018-04-01T21:02:05.246Z,95249.41
2018-04-01T21:04:47.758Z,95251.79
2018-04-01T21:07:21.439Z,95258.39
2018-04-01T21:09:53.345Z,95257.66
2018-04-01T21:12:25.563Z,95253.94
2018-04-01T21:14:58.179Z,95260.77
2018-04-01T21:17:41.573Z,95253.50
2018-04-01T21:20:16.920Z,95252.64
2018-04-01T21:22:48.257Z,95266.50
2018-04-01T21:25:22.117Z,95258.73
2018-04-01T21:27:53.443Z,95259.11
2018-04-01T21:30:26.073Z,95266.09
2018-04-01T21:33:01.182Z,95270.13
2018-04-01T21:35:36.695Z,95267.47
2018-04-01T21:38:09.954Z,95265.77
2018-04-01T21:40:42.201Z,95269.27
2018-04-01T21:43:14.160Z,95272.48
2018-04-01T21:45:48.123Z,95265.97
2018-04-01T21:48:18.919Z,95283.23
2018-04-01T21:50:48.292Z,95271.17
2018-04-01T21:53:20.073Z,95279.39
2018-04-01T21:56:00.516Z,95278.80
2018-04-01T21:58:39.477Z,95276.22
2018-04-01T22:01:10.039Z,95284.46
2018-04-01T22:03:41.270Z,95299.43
2018-04-01T22:06:11.916Z,95284.83
2018-04-01T22:08:43.338Z,95282.80
2018-04-01T22:11:14.650Z,95276.31
2018-04-01T22:14:04.848Z,95273.83
2018-04-01T22:16:39.095Z,95282.19
2018-04-01T22:19:10.870Z,95277.11
2018-04-01T22:21:42.404Z,95271.91
2018-04-01T22:24:12.940Z,95276.78
2018-04-01T22:26:57.331Z,95277.27
2018-04-01T22:29:28.757Z,95274.53
2018-04-01T22:31:58.403Z,95274.56
2018-04-01T22:34:29.034Z,95273.55
2018-04-01T22:37:00.331Z,95271.83
2018-04-01T22:39:31.602Z,95271.36
2018-04-01T22:42:04.931Z,95271.84
2018-04-01T22:44:35.735Z,95272.11
2018-04-01T22:47:06.916Z,95278.28
2018-04-01T22:49:37.991Z,95273.03
2018-04-01T22:52:14.547Z,95270.28
2018-04-01T22:54:46.434Z,95275.61
2018-04-01T22:57:18.121Z,95265.73
2018-04-01T22:59:50.700Z,95270.49
2018-04-01T23:02:24.046Z,95266.75
2018-04-01T23:04:56.961Z,95262.34
2018-04-01T23:07:27.374Z,95262.72
2018-04-01T23:10:01.600Z,95264.43
2018-04-01T23:12:32.936Z,95259.19
2018-04-01T23:15:05.223Z,95261.06
2018-04-01T23:17:36.480Z,95265.39
2018-04-01T23:20:15.972Z,95265.66
2018-04-01T23:22:46.658Z,95274.03
2018-04-01T23:25:30.797Z,95279.89
2018-04-01T23:28:02.491Z,95279.62
2018-04-01T23:30:34.425Z,95280.91
2018-04-01T23:33:07.061Z,95280.00
2018-04-01T23:35:39.041Z,95278.77
2018-04-01T23:38:14.153Z,95286.89
2018-04-01T23:40:45.662Z,95288.38
2018-04-01T23:43:16.869Z,95291.13
2018-04-01T23:45:52.014Z,95289.73
2018-04-01T23:48:22.480Z,95287.34
2018-04-01T23:50:55.410Z,95289.86
2018-04-01T23:53:26.594Z,95295.38
2018-04-01T23:55:58.485Z,95291.97
2018-04-01T23:58:30.348Z,95297.42
